createdAt,value
2018-03-17T00:01:12.435Z,99001.27
2018-03-17T00:03:40.029Z,99007.95
2018-03-17T00:06:07.666Z,98992.63
2018-03-17T00:08:35.263Z,98985.17
2018-03-17T00:11:05.997Z,98987.75
2018-03-17T00:13:33.627Z,98999.48
2018-03-17T00:16:01.213Z,98999.12
2018-03-17T00:18:28.818Z,99001.95
2018-03-17T00:20:56.463Z,98997.28
2018-03-17T00:23:24.112Z,98994.14
2018-03-17T00:25:51.710Z,98993.28
2018-03-17T00:28:19.331Z,98986.11
2018-03-17T00:30:46.950Z,98984.66
2018-03-17T00:33:14.610Z,98987.69
2018-03-17T00:35:42.196Z,98986.58
2018-03-17T00:38:09.899Z,98987.36
2018-03-17T00:40:37.488Z,98988.55
2018-03-17T00:43:05.086Z,98977.03
2018-03-17T00:45:32.707Z,98984.25
2018-03-17T00:48:00.308Z,98978.66
2018-03-17T00:50:27.899Z,98977.39
2018-03-17T00:52:55.498Z,98970.52
2018-03-17T00:55:23.094Z,98973.44
2018-03-17T00:57:50.798Z,98969.34
2018-03-17T01:00:18.414Z,98963.07
2018-03-17T01:02:46.015Z,98950.49
2018-03-17T01:05:13.718Z,98951.80
2018-03-17T01:07:41.322Z,98942.48
2018-03-17T01:10:08.947Z,98936.50
2018-03-17T01:12:36.582Z,98946.80
2018-03-17T01:15:04.188Z,98942.05
2018-03-17T01:17:31.783Z,98942.71
2018-03-17T01:19:59.495Z,98939.44
2018-03-17T01:22:27.139Z,98952.19
2018-03-17T01:24:54.718Z,98966.55
2018-03-17T01:27:22.319Z,98971.50
2018-03-17T01:29:49.911Z,98953.64
2018-03-17T01:32:17.506Z,98951.42
2018-03-17T01:34:45.116Z,98958.32
2018-03-17T01:37:12.787Z,98958.25
2018-03-17T01:39:40.384Z,98955.98
2018-03-17T01:42:08.003Z,98959.50
2018-03-17T01:44:35.623Z,98948.50
2018-03-17T01:47:03.222Z,98940.95
2018-03-17T01:49:30.806Z,98940.97
2018-03-17T01:51:58.424Z,98938.88
2018-03-17T01:54:32.002Z,98939.33
2018-03-17T01:56:59.642Z,98935.14
2018-03-17T01:59:27.294Z,98941.21
2018-03-17T02:01:54.895Z,98939.64
2018-03-17T02:04:22.483Z,98945.05
2018-03-17T02:06:50.074Z,98930.17
2018-03-17T02:09:17.678Z,98928.41
2018-03-17T02:11:45.331Z,98930.02
2018-03-17T02:14:12.935Z,98930.38
2018-03-17T02:16:40.534Z,98937.02
2018-03-17T02:19:08.182Z,98942.80
2018-03-17T02:21:35.779Z,98936.66
2018-03-17T02:24:03.370Z,98943.58
2018-03-17T02:26:31.103Z,98944.77
2018-03-17T02:28:58.699Z,98943.77
2018-03-17T02:31:26.303Z,98939.13
2018-03-17T02:33:54.031Z,98938.97
2018-03-17T02:36:21.627Z,98943.66
2018-03-17T02:38:49.227Z,98941.34
2018-03-17T02:41:16.832Z,98940.44
2018-03-17T02:43:44.429Z,98943.66
2018-03-17T02:46:12.059Z,98952.19
2018-03-17T02:48:39.671Z,98952.87
2018-03-17T02:51:07.257Z,98944.26
2018-03-17T02:53:34.876Z,98939.17
2018-03-17T02:56:02.479Z,98944.48
2018-03-17T02:58:30.103Z,98937.45
2018-03-17T03:00:57.704Z,98940.06
2018-03-17T03:03:25.321Z,98938.30
2018-03-17T03:05:52.917Z,98942.16
2018-03-17T03:08:20.516Z,98935.34
2018-03-17T03:10:48.115Z,98939.91
2018-03-17T03:13:15.729Z,98938.21
2018-03-17T03:15:43.323Z,98930.81
2018-03-17T03:18:10.922Z,98942.00
2018-03-17T03:20:38.522Z,98949.53
2018-03-17T03:23:06.115Z,98952.17
2018-03-17T03:25:33.698Z,98957.97
2018-03-17T03:28:01.332Z,98958.74
2018-03-17T03:30:28.944Z,98956.91
2018-03-17T03:32:56.531Z,98956.91
2018-03-17T03:35:24.279Z,98961.90
2018-03-17T03:37:51.859Z,98967.43
2018-03-17T03:40:19.476Z,98962.71
2018-03-17T03:42:47.076Z,98967.50
2018-03-17T03:45:14.706Z,98970.56
2018-03-17T03:47:42.327Z,98975.23
2018-03-17T03:50:09.906Z,98970.55
2018-03-17T03:52:37.527Z,98959.36
2018-03-17T03:55:05.138Z,98971.41
2018-03-17T03:57:32.732Z,98959.95
2018-03-17T04:00:00.318Z,98946.92
2018-03-17T04:02:27.911Z,98957.89
2018-03-17T04:04:55.523Z,98964.87
2018-03-17T04:07:23.114Z,98965.26
2018-03-17T04:09:50.716Z,98961.78
2018-03-17T04:12:18.339Z,98959.21
2018-03-17T04:14:45.974Z,98953.16
2018-03-17T04:17:13.546Z,98961.67
2018-03-17T04:19:41.163Z,98967.34
2018-03-17T04:22:08.958Z,98963.83
2018-03-17T04:24:36.623Z,98972.50
2018-03-17T04:27:04.224Z,98959.16
2018-03-17T04:29:31.830Z,98952.09
2018-03-17T04:31:59.467Z,98948.87
2018-03-17T04:34:27.050Z,98947.41
2018-03-17T04:36:54.635Z,98951.04
2018-03-17T04:39:22.231Z,98942.00
2018-03-17T04:41:49.820Z,98943.56
2018-03-17T04:44:17.469Z,98950.45
2018-03-17T04:46:45.059Z,98939.63
2018-03-17T04:49:12.684Z,98952.45
2018-03-17T04:51:40.352Z,98944.00
2018-03-17T04:54:07.937Z,98955.31
2018-03-17T04:56:35.550Z,98950.12
2018-03-17T04:59:03.147Z,98943.42
2018-03-17T05:01:30.742Z,98947.10
2018-03-17T05:03:58.423Z,98946.88
2018-03-17T05:06:26.016Z,98956.34
2018-03-17T05:08:53.611Z,98952.91
2018-03-17T05:11:21.231Z,98949.92
2018-03-17T05:13:48.819Z,98938.91
2018-03-17T05:16:16.447Z,98931.34
2018-03-17T05:18:44.055Z,98944.59
2018-03-17T05:21:11.684Z,98950.98
2018-03-17T05:23:39.303Z,98954.58
2018-03-17T05:26:07.005Z,98958.63
2018-03-17T05:28:34.595Z,98956.95
2018-03-17T05:31:02.190Z,98959.64
2018-03-17T05:33:29.783Z,98951.62
2018-03-17T05:35:57.383Z,98950.58
2018-03-17T05:38:25.044Z,98947.95
2018-03-17T05:40:52.670Z,98946.03
2018-03-17T05:43:20.256Z,98945.88
2018-03-17T05:45:47.897Z,98938.43
2018-03-17T05:48:15.492Z,98937.49
2018-03-17T05:50:43.106Z,98943.62
2018-03-17T05:53:10.687Z,98942.58
2018-03-17T05:55:38.347Z,98942.94
2018-03-17T05:58:05.983Z,98949.52
2018-03-17T06:00:33.680Z,98952.14
2018-03-17T06:03:01.290Z,98956.13
2018-03-17T06:05:28.943Z,98956.90
2018-03-17T06:07:56.601Z,98951.59
2018-03-17T06:10:24.219Z,98948.36
2018-03-17T06:12:51.878Z,98941.55
2018-03-17T06:15:19.479Z,98940.97
2018-03-17T06:17:47.067Z,98931.87
2018-03-17T06:20:14.692Z,98935.88
2018-03-17T06:22:42.290Z,98935.34
2018-03-17T06:25:09.913Z,98922.70
2018-03-17T06:27:37.555Z,98921.88
2018-03-17T06:30:05.166Z,98930.41
2018-03-17T06:32:32.763Z,98935.06
2018-03-17T06:35:00.427Z,98935.42
2018-03-17T06:37:28.035Z,98935.11
2018-03-17T06:39:55.631Z,98932.56
2018-03-17T06:42:23.251Z,98930.12
2018-03-17T06:44:50.843Z,98925.77
2018-03-17T06:47:18.494Z,98918.38
2018-03-17T06:49:46.135Z,98924.50
2018-03-17T06:52:13.731Z,98925.14
2018-03-17T06:54:41.352Z,98927.66
2018-03-17T06:57:08.983Z,98940.69
2018-03-17T06:59:36.586Z,98927.01
2018-03-17T07:02:04.196Z,98930.29
2018-03-17T07:04:31.783Z,98935.18
2018-03-17T07:06:59.426Z,98944.34
2018-03-17T07:09:27.126Z,98949.37
2018-03-17T07:11:54.746Z,98952.37
2018-03-17T07:14:23.207Z,98955.95
2018-03-17T07:16:50.823Z,98954.86
2018-03-17T07:19:19.125Z,98948.75
2018-03-17T07:21:47.042Z,98950.23
2018-03-17T07:24:14.724Z,98934.80
2018-03-17T07:26:42.400Z,98925.89
2018-03-17T07:29:10.079Z,98928.02
2018-03-17T07:31:37.759Z,98924.64
2018-03-17T07:34:05.364Z,98927.75
2018-03-17T07:36:32.987Z,98923.50
2018-03-17T07:39:00.641Z,98929.77
2018-03-17T07:41:28.285Z,98912.27
2018-03-17T07:43:55.875Z,98916.23
2018-03-17T07:46:23.511Z,98920.83
2018-03-17T07:48:51.191Z,98913.72
2018-03-17T07:51:18.786Z,98915.51
2018-03-17T07:53:46.379Z,98922.95
2018-03-17T07:56:14.023Z,98916.20
2018-03-17T07:58:41.651Z,98911.64
2018-03-17T08:01:09.243Z,98907.67
2018-03-17T08:03:36.884Z,98918.39
2018-03-17T08:06:04.487Z,98908.98
2018-03-17T08:08:32.170Z,98902.56
2018-03-17T08:10:59.778Z,98901.80
2018-03-17T08:13:27.402Z,98906.55
2018-03-17T08:15:55.034Z,98905.98
2018-03-17T08:18:22.658Z,98905.82
2018-03-17T08:20:50.324Z,98909.58
2018-03-17T08:23:17.991Z,98910.34
2018-03-17T08:25:45.599Z,98894.76
2018-03-17T08:28:13.191Z,98888.68
2018-03-17T08:30:40.829Z,98875.98
2018-03-17T08:33:08.450Z,98875.94
2018-03-17T08:35:36.151Z,98870.08
2018-03-17T08:38:03.792Z,98873.08
2018-03-17T08:40:31.379Z,98860.94
2018-03-17T08:42:58.985Z,98852.95
2018-03-17T08:45:26.611Z,98859.51
2018-03-17T08:47:54.223Z,98861.18
2018-03-17T08:50:21.823Z,98865.52
2018-03-17T08:52:49.492Z,98861.48
2018-03-17T08:55:17.093Z,98847.39
2018-03-17T08:57:44.702Z,98852.77
2018-03-17T09:00:12.362Z,98860.49
2018-03-17T09:02:39.963Z,98849.50
2018-03-17T09:05:07.615Z,98865.55
2018-03-17T09:07:35.271Z,98874.31
2018-03-17T09:10:02.874Z,98887.00
2018-03-17T09:12:30.493Z,98892.35
2018-03-17T09:14:58.109Z,98897.52
2018-03-17T09:17:25.719Z,98889.56
2018-03-17T09:19:53.381Z,98888.58
2018-03-17T09:22:21.788Z,98863.91
2018-03-17T09:24:49.444Z,98852.77
2018-03-17T09:27:17.117Z,98838.20
2018-03-17T09:29:44.707Z,98841.36
2018-03-17T09:32:12.304Z,98830.04
2018-03-17T09:34:39.915Z,98822.22
2018-03-17T09:37:07.523Z,98814.36
2018-03-17T09:39:35.245Z,98810.41
2018-03-17T09:42:02.833Z,98823.35
2018-03-17T09:44:30.431Z,98811.97
2018-03-17T09:46:58.167Z,98812.23
2018-03-17T09:49:25.803Z,98816.47
2018-03-17T09:51:53.395Z,98820.03
2018-03-17T09:54:21.000Z,98810.69
2018-03-17T09:56:48.603Z,98807.05
2018-03-17T09:59:16.231Z,98798.14
2018-03-17T10:01:43.927Z,98800.73
2018-03-17T10:04:11.534Z,98791.98
2018-03-17T10:06:39.163Z,98775.69
2018-03-17T10:09:06.759Z,98775.02
2018-03-17T10:11:34.387Z,98783.13
2018-03-17T10:14:01.979Z,98785.48
2018-03-17T10:16:29.604Z,98778.45
2018-03-17T10:18:57.207Z,98780.84
2018-03-17T10:21:24.844Z,98764.66
2018-03-17T10:23:52.459Z,98727.78
2018-03-17T10:26:20.095Z,98703.13
2018-03-17T10:28:47.715Z,98676.61
2018-03-17T10:31:15.328Z,98683.41
2018-03-17T10:33:42.945Z,98683.14
2018-03-17T10:36:10.579Z,98671.78
2018-03-17T10:38:39.006Z,98671.53
2018-03-17T10:41:06.631Z,98676.02
2018-03-17T10:43:34.285Z,98666.27
2018-03-17T10:46:01.876Z,98658.25
2018-03-17T10:48:29.545Z,98650.53
2018-03-17T10:50:57.162Z,98625.95
2018-03-17T10:53:24.775Z,98605.17
2018-03-17T10:55:52.411Z,98597.38
2018-03-17T10:58:20.087Z,98607.91
2018-03-17T11:00:47.719Z,98609.52
2018-03-17T11:03:15.350Z,98602.66
2018-03-17T11:05:43.021Z,98583.36
2018-03-17T11:08:10.619Z,98569.91
2018-03-17T11:10:38.303Z,98564.99
2018-03-17T11:13:05.895Z,98546.46
2018-03-17T11:15:33.495Z,98553.90
2018-03-17T11:18:01.107Z,98541.70
2018-03-17T11:20:28.711Z,98536.96
2018-03-17T11:22:56.387Z,98529.69
2018-03-17T11:25:23.959Z,98510.90
2018-03-17T11:27:51.631Z,98505.91
2018-03-17T11:30:19.223Z,98481.48
2018-03-17T11:32:46.914Z,98470.47
2018-03-17T11:35:14.514Z,98460.62
2018-03-17T11:37:42.155Z,98464.78
2018-03-17T11:40:09.739Z,98442.34
2018-03-17T11:42:37.348Z,98440.08
2018-03-17T11:45:04.999Z,98426.80
2018-03-17T11:47:32.606Z,98433.56
2018-03-17T11:50:00.244Z,98446.34
2018-03-17T11:52:27.843Z,98445.67
2018-03-17T11:54:55.482Z,98443.01
2018-03-17T11:57:23.131Z,98434.42
2018-03-17T11:59:50.773Z,98455.02
2018-03-17T12:02:18.407Z,98470.82
2018-03-17T12:04:45.991Z,98478.51
2018-03-17T12:07:13.601Z,98457.16
2018-03-17T12:09:41.257Z,98442.23
2018-03-17T12:12:08.872Z,98462.15
2018-03-17T12:14:36.463Z,98446.33
2018-03-17T12:17:04.101Z,98450.45
2018-03-17T12:19:31.695Z,98454.98
2018-03-17T12:21:59.348Z,98452.83
2018-03-17T12:24:26.979Z,98441.70
2018-03-17T12:26:54.567Z,98435.36
2018-03-17T12:29:22.231Z,98400.64
2018-03-17T12:31:49.931Z,98434.78
2018-03-17T12:34:17.583Z,98452.61
2018-03-17T12:36:45.171Z,98430.70
2018-03-17T12:39:12.818Z,98435.00
2018-03-17T12:41:40.451Z,98415.51
2018-03-17T12:44:08.051Z,98414.72
2018-03-17T12:46:35.707Z,98428.11
2018-03-17T12:49:03.298Z,98423.44
2018-03-17T12:51:30.886Z,98399.73
2018-03-17T12:53:58.519Z,98404.53
2018-03-17T12:56:26.111Z,98416.04
2018-03-17T12:58:53.703Z,98405.16
2018-03-17T13:01:21.303Z,98387.86
2018-03-17T13:03:48.920Z,98392.44
2018-03-17T13:06:16.575Z,98366.68
2018-03-17T13:08:44.155Z,98348.19
2018-03-17T13:11:11.747Z,98348.53
2018-03-17T13:13:39.456Z,98340.92
2018-03-17T13:16:07.083Z,98335.41
2018-03-17T13:18:34.685Z,98328.39
2018-03-17T13:21:02.314Z,98300.38
2018-03-17T13:23:29.904Z,98304.37
2018-03-17T13:25:57.537Z,98312.11
2018-03-17T13:28:30.023Z,98297.97
2018-03-17T13:30:57.708Z,98304.17
2018-03-17T13:33:25.311Z,98303.59
2018-03-17T13:36:04.647Z,98301.11
2018-03-17T13:38:32.256Z,98307.83
2018-03-17T13:40:59.851Z,98296.31
2018-03-17T13:43:27.453Z,98294.46
2018-03-17T13:45:55.119Z,98293.45
2018-03-17T13:48:22.802Z,98282.81
2018-03-17T13:50:50.443Z,98266.95
2018-03-17T13:53:18.069Z,98259.72
2018-03-17T13:55:45.775Z,98251.73
2018-03-17T13:58:13.368Z,98227.95
2018-03-17T14:00:40.975Z,98232.80
2018-03-17T14:03:08.590Z,98240.73
2018-03-17T14:05:36.219Z,98242.52
2018-03-17T14:08:03.815Z,98225.57
2018-03-17T14:10:31.439Z,98224.30
2018-03-17T14:12:59.031Z,98233.50
2018-03-17T14:15:26.623Z,98227.34
2018-03-17T14:17:55.115Z,98221.72
2018-03-17T14:20:22.731Z,98214.11
2018-03-17T14:22:50.320Z,98216.71
2018-03-17T14:25:17.959Z,98211.16
2018-03-17T14:27:45.563Z,98205.50
2018-03-17T14:30:13.156Z,98188.73
2018-03-17T14:32:40.759Z,98170.96
2018-03-17T14:35:08.359Z,98173.48
2018-03-17T14:37:36.036Z,98169.95
2018-03-17T14:40:03.663Z,98166.38
2018-03-17T14:42:31.283Z,98164.56
2018-03-17T14:44:58.955Z,98165.80
2018-03-17T14:47:26.556Z,98158.19
2018-03-17T14:49:54.147Z,98158.44
2018-03-17T14:52:21.846Z,98152.06
2018-03-17T14:54:49.463Z,98166.55
2018-03-17T14:57:17.064Z,98176.27
2018-03-17T14:59:44.654Z,98162.23
2018-03-17T15:02:12.247Z,98167.43
2018-03-17T15:04:39.871Z,98154.70
2018-03-17T15:07:07.465Z,98151.77
2018-03-17T15:09:35.054Z,98154.95
2018-03-17T15:12:02.681Z,98162.23
2018-03-17T15:14:30.284Z,98173.73
2018-03-17T15:16:57.895Z,98171.39
2018-03-17T15:19:25.537Z,98172.41
2018-03-17T15:21:53.133Z,98148.97
2018-03-17T15:24:20.767Z,98152.89
2018-03-17T15:26:48.412Z,98149.37
2018-03-17T15:29:16.012Z,98141.03
2018-03-17T15:31:43.641Z,98145.28
2018-03-17T15:34:11.276Z,98143.81
2018-03-17T15:36:38.871Z,98135.08
2018-03-17T15:39:06.633Z,98135.81
2018-03-17T15:41:34.784Z,98132.22
2018-03-17T15:44:02.374Z,98123.41
2018-03-17T15:46:29.963Z,98115.99
2018-03-17T15:48:57.583Z,98109.84
2018-03-17T15:51:25.243Z,98116.44
2018-03-17T15:53:52.831Z,98123.03
2018-03-17T15:56:20.431Z,98116.83
2018-03-17T15:58:48.056Z,98120.66
2018-03-17T16:01:15.651Z,98117.61
2018-03-17T16:03:43.260Z,98124.44
2018-03-17T16:06:10.902Z,98118.67
2018-03-17T16:08:38.571Z,98110.84
2018-03-17T16:11:06.206Z,98113.13
2018-03-17T16:13:33.803Z,98108.08
2018-03-17T16:16:01.415Z,98098.94
2018-03-17T16:18:29.232Z,98094.79
2018-03-17T16:20:56.827Z,98089.52
2018-03-17T16:23:24.404Z,98087.20
2018-03-17T16:25:52.031Z,98089.50
2018-03-17T16:28:19.628Z,98100.61
2018-03-17T16:30:47.231Z,98103.84
2018-03-17T16:33:14.895Z,98101.98
2018-03-17T16:35:42.510Z,98085.98
2018-03-17T16:38:10.112Z,98070.47
2018-03-17T16:40:37.703Z,98073.11
2018-03-17T16:43:05.335Z,98101.91
2018-03-17T16:45:32.983Z,98098.68
2018-03-17T16:48:00.615Z,98074.90
2018-03-17T16:50:29.065Z,98071.63
2018-03-17T16:52:56.684Z,98070.98
2018-03-17T16:55:24.283Z,98072.37
2018-03-17T16:57:51.915Z,98089.13
2018-03-17T17:00:19.519Z,98090.70
2018-03-17T17:02:47.195Z,98093.79
2018-03-17T17:05:14.815Z,98107.77
2018-03-17T17:07:42.413Z,98086.44
2018-03-17T17:10:10.043Z,98074.08
2018-03-17T17:12:37.659Z,98096.27
2018-03-17T17:15:05.359Z,98098.89
2018-03-17T17:17:33.019Z,98107.04
2018-03-17T17:20:00.631Z,98135.64
2018-03-17T17:22:28.221Z,98141.41
2018-03-17T17:24:55.831Z,98143.95
2018-03-17T17:27:23.520Z,98140.33
2018-03-17T17:29:51.140Z,98144.56
2018-03-17T17:32:18.751Z,98162.72
2018-03-17T17:34:46.365Z,98175.73
2018-03-17T17:37:14.198Z,98181.66
2018-03-17T17:39:41.815Z,98182.86
2018-03-17T17:42:09.414Z,98187.92
2018-03-17T17:44:37.055Z,98187.61
2018-03-17T17:47:04.652Z,98202.43
2018-03-17T17:49:32.243Z,98219.12
2018-03-17T17:51:59.872Z,98211.02
2018-03-17T17:54:27.515Z,98221.47
2018-03-17T17:56:55.099Z,98227.70
2018-03-17T17:59:22.727Z,98221.75
2018-03-17T18:01:50.318Z,98212.40
2018-03-17T18:04:17.979Z,98218.16
2018-03-17T18:06:45.571Z,98203.64
2018-03-17T18:09:13.155Z,98224.35
2018-03-17T18:11:40.775Z,98234.77
2018-03-17T18:14:08.382Z,98209.00
2018-03-17T18:16:36.033Z,98233.07
2018-03-17T18:19:03.739Z,98252.69
2018-03-17T18:21:31.812Z,98275.27
2018-03-17T18:23:59.430Z,98242.70
2018-03-17T18:26:27.057Z,98213.58
2018-03-17T18:28:54.659Z,98236.83
2018-03-17T18:31:22.255Z,98220.05
2018-03-17T18:33:50.010Z,98276.50
2018-03-17T18:36:17.595Z,98255.94
2018-03-17T18:38:45.195Z,98250.48
2018-03-17T18:41:12.827Z,98244.72
2018-03-17T18:43:40.411Z,98225.86
2018-03-17T18:46:08.007Z,98243.16
2018-03-17T18:48:35.643Z,98267.41
2018-03-17T18:51:03.259Z,98277.45
2018-03-17T18:53:30.892Z,98247.16
2018-03-17T18:55:58.487Z,98268.48
2018-03-17T18:58:26.101Z,98280.73
2018-03-17T19:00:53.694Z,98267.05
2018-03-17T19:03:21.288Z,98263.01
2018-03-17T19:05:48.969Z,98271.06
2018-03-17T19:08:16.571Z,98275.33
2018-03-17T19:10:44.165Z,98280.13
2018-03-17T19:13:11.863Z,98252.30
2018-03-17T19:15:39.494Z,98261.89
2018-03-17T19:18:07.181Z,98254.20
2018-03-17T19:20:34.775Z,98284.29
2018-03-17T19:23:02.375Z,98240.69
2018-03-17T19:25:30.004Z,98232.37
2018-03-17T19:27:57.619Z,98257.18
2018-03-17T19:30:25.211Z,98214.03
2018-03-17T19:32:52.868Z,98255.22
2018-03-17T19:35:20.528Z,98229.23
2018-03-17T19:37:48.196Z,98225.64
2018-03-17T19:40:15.827Z,98199.55
2018-03-17T19:42:43.455Z,98245.30
2018-03-17T19:45:11.043Z,98240.16
2018-03-17T19:47:38.718Z,98233.60
2018-03-17T19:50:06.331Z,98207.08
2018-03-17T19:52:34.027Z,98240.70
2018-03-17T19:55:01.651Z,98214.88
2018-03-17T19:57:29.240Z,98228.61
2018-03-17T19:59:56.907Z,98249.32
2018-03-17T20:02:24.544Z,98236.50
2018-03-17T20:04:52.282Z,98160.80
2018-03-17T20:07:19.920Z,98255.82
2018-03-17T20:09:47.552Z,98177.62
2018-03-17T20:12:15.196Z,98189.70
2018-03-17T20:14:42.832Z,98230.55
2018-03-17T20:17:10.450Z,98193.52
2018-03-17T20:19:38.063Z,98211.30
2018-03-17T20:22:05.671Z,98205.29
2018-03-17T20:24:33.314Z,98213.47
2018-03-17T20:27:00.935Z,98205.39
2018-03-17T20:29:28.572Z,98217.31
2018-03-17T20:31:56.191Z,98201.05
2018-03-17T20:34:23.775Z,98216.94
2018-03-17T20:36:51.465Z,98246.72
2018-03-17T20:39:19.127Z,98221.38
2018-03-17T20:41:46.758Z,98250.21
2018-03-17T20:44:14.400Z,98244.95
2018-03-17T20:46:42.045Z,98252.73
2018-03-17T20:49:09.638Z,98245.50
2018-03-17T20:51:37.254Z,98230.03
2018-03-17T20:54:04.868Z,98200.66
2018-03-17T20:56:32.523Z,98226.11
2018-03-17T20:59:00.171Z,98244.16
2018-03-17T21:01:27.809Z,98262.04
2018-03-17T21:03:55.404Z,98227.67
2018-03-17T21:06:23.038Z,98206.86
2018-03-17T21:08:50.679Z,98236.39
2018-03-17T21:11:18.273Z,98258.66
2018-03-17T21:13:45.908Z,98210.75
2018-03-17T21:16:13.599Z,98233.97
2018-03-17T21:18:41.240Z,98261.28
2018-03-17T21:21:08.869Z,98203.31
2018-03-17T21:23:36.497Z,98207.25
2018-03-17T21:26:04.097Z,98245.75
2018-03-17T21:28:31.701Z,98239.92
2018-03-17T21:30:59.376Z,98203.44
2018-03-17T21:33:27.006Z,98216.30
2018-03-17T21:35:54.629Z,98232.96
2018-03-17T21:38:22.297Z,98187.09
2018-03-17T21:40:49.902Z,98177.06
2018-03-17T21:43:17.495Z,98269.84
2018-03-17T21:45:45.199Z,98264.80
2018-03-17T21:48:12.793Z,98177.21
2018-03-17T21:50:40.387Z,98163.48
2018-03-17T21:53:08.058Z,98182.46
2018-03-17T21:55:35.658Z,98205.76
2018-03-17T21:58:03.319Z,98236.63
2018-03-17T22:00:30.914Z,98219.00
2018-03-17T22:02:58.562Z,98159.88
2018-03-17T22:05:26.166Z,98188.06
2018-03-17T22:07:53.751Z,98184.48
2018-03-17T22:10:21.390Z,98158.06
2018-03-17T22:12:48.987Z,98187.61
2018-03-17T22:15:16.578Z,98220.95
2018-03-17T22:17:44.269Z,98220.02
2018-03-17T22:20:11.920Z,98196.52
2018-03-17T22:22:39.535Z,98169.39
2018-03-17T22:25:07.224Z,98159.16
2018-03-17T22:27:34.820Z,98156.52
2018-03-17T22:30:02.511Z,98156.80
2018-03-17T22:32:30.164Z,98169.20
2018-03-17T22:34:57.783Z,98220.55
2018-03-17T22:37:25.399Z,98213.29
2018-03-17T22:39:52.988Z,98213.45
2018-03-17T22:42:20.575Z,98240.44
2018-03-17T22:44:48.171Z,98195.50
2018-03-17T22:47:16.040Z,98177.46
2018-03-17T22:49:43.719Z,98144.38
2018-03-17T22:52:11.302Z,98159.87
2018-03-17T22:54:38.968Z,98147.42
2018-03-17T22:57:06.546Z,98135.86
2018-03-17T22:59:34.153Z,98164.10
2018-03-17T23:02:01.743Z,98122.30
2018-03-17T23:04:29.363Z,98118.98
2018-03-17T23:06:56.962Z,98118.22
2018-03-17T23:09:24.626Z,98137.48
2018-03-17T23:11:52.215Z,98134.04
2018-03-17T23:14:19.803Z,98142.34
2018-03-17T23:16:47.509Z,98137.98
2018-03-17T23:19:15.122Z,98113.95
2018-03-17T23:21:42.788Z,98112.41
2018-03-17T23:24:10.383Z,98153.34
2018-03-17T23:26:38.028Z,98133.45
2018-03-17T23:29:05.660Z,98133.50
2018-03-17T23:31:33.319Z,98125.69
2018-03-17T23:34:00.895Z,98106.97
2018-03-17T23:36:28.537Z,98070.20
2018-03-17T23:38:56.211Z,98097.38
2018-03-17T23:41:23.879Z,98126.25
2018-03-17T23:43:51.499Z,98143.23
2018-03-17T23:46:19.166Z,98140.23
2018-03-17T23:48:46.858Z,98116.52
2018-03-17T23:51:14.528Z,98113.53
2018-03-17T23:53:42.157Z,98096.22
2018-03-17T23:56:09.842Z,98092.20
2018-03-17T23:58:37.537Z,98113.02
